createdAt,value
2023-12-09T00:01:46.908Z,6.67
2023-12-09T00:04:16.039Z,6.97
2023-12-09T00:06:50.501Z,7.13
2023-12-09T00:09:21.965Z,5.30
2023-12-09T00:11:51.331Z,6.20
2023-12-09T00:14:20.277Z,5.83
2023-12-09T00:16:50.111Z,6.30
2023-12-09T00:19:19.320Z,5.90
2023-12-09T00:21:48.149Z,6.17
2023-12-09T00:24:17.475Z,5.23
2023-12-09T00:26:46.262Z,7.03
2023-12-09T00:29:16.288Z,5.77
2023-12-09T00:31:45.332Z,5.33
2023-12-09T00:34:13.859Z,5.90
2023-12-09T00:36:43.636Z,5.30
2023-12-09T00:39:13.618Z,5.80
2023-12-09T00:41:42.518Z,6.80
2023-12-09T00:44:11.548Z,5.83
2023-12-09T00:46:39.921Z,5.27
2023-12-09T00:49:08.745Z,5.67
2023-12-09T00:51:37.653Z,5.50
2023-12-09T00:54:07.710Z,5.10
2023-12-09T00:56:36.252Z,5.93
2023-12-09T00:59:07.392Z,5.40
2023-12-09T01:01:38.789Z,4.73
2023-12-09T01:04:09.187Z,5.63
2023-12-09T01:06:37.917Z,5.20
2023-12-09T01:09:06.938Z,4.97
2023-12-09T01:11:35.981Z,5.23
2023-12-09T01:14:05.022Z,4.97
2023-12-09T01:16:35.272Z,5.07
2023-12-09T01:19:05.049Z,5.03
2023-12-09T01:21:34.175Z,4.83
2023-12-09T01:24:03.150Z,5.20
2023-12-09T01:26:33.240Z,4.53
2023-12-09T01:29:04.509Z,4.93
2023-12-09T01:31:34.251Z,4.67
2023-12-09T01:34:02.962Z,3.97
2023-12-09T01:36:32.416Z,4.97
2023-12-09T01:39:00.861Z,4.97
2023-12-09T01:41:33.420Z,4.93
2023-12-09T01:44:01.836Z,4.53
2023-12-09T01:46:30.861Z,4.80
2023-12-09T01:48:59.137Z,4.43
2023-12-09T01:51:28.362Z,4.47
2023-12-09T01:53:58.192Z,5.40
2023-12-09T01:56:26.830Z,4.87
2023-12-09T01:58:56.098Z,4.67
2023-12-09T02:01:26.004Z,4.40
2023-12-09T02:03:56.827Z,4.40
2023-12-09T02:06:26.228Z,4.60
2023-12-09T02:08:56.468Z,4.67
2023-12-09T02:11:41.950Z,4.53
2023-12-09T02:14:22.014Z,4.50
2023-12-09T02:16:56.244Z,6.33
2023-12-09T02:19:25.907Z,4.77
2023-12-09T02:22:03.135Z,4.77
2023-12-09T02:24:33.486Z,5.70
2023-12-09T02:27:15.442Z,5.73
2023-12-09T02:30:06.405Z,4.80
2023-12-09T02:32:37.573Z,4.47
2023-12-09T02:35:08.663Z,4.70
2023-12-09T02:37:42.520Z,4.40
2023-12-09T02:40:13.374Z,4.77
2023-12-09T02:42:44.940Z,5.90
2023-12-09T02:45:13.909Z,4.83
2023-12-09T02:47:42.294Z,5.00
2023-12-09T02:50:10.939Z,4.30
2023-12-09T02:52:39.936Z,5.33
2023-12-09T02:55:09.465Z,4.33
2023-12-09T02:57:39.430Z,4.90
2023-12-09T03:00:09.535Z,4.87
2023-12-09T03:02:39.605Z,4.97
2023-12-09T03:05:10.258Z,4.20
2023-12-09T03:07:38.672Z,5.00
2023-12-09T03:10:09.680Z,5.80
2023-12-09T03:12:40.767Z,4.77
2023-12-09T03:15:11.023Z,5.70
2023-12-09T03:17:40.908Z,4.83
2023-12-09T03:20:10.824Z,5.23
2023-12-09T03:22:39.822Z,5.10
2023-12-09T03:25:09.891Z,4.93
2023-12-09T03:27:38.994Z,4.70
2023-12-09T03:30:08.339Z,4.50
2023-12-09T03:32:41.059Z,5.40
2023-12-09T03:35:14.306Z,5.63
2023-12-09T03:37:43.635Z,4.43
2023-12-09T03:40:12.117Z,4.83
2023-12-09T03:42:42.208Z,5.90
2023-12-09T03:45:11.180Z,4.97
2023-12-09T03:47:39.295Z,4.93
2023-12-09T03:50:08.939Z,5.03
2023-12-09T03:52:38.317Z,5.33
2023-12-09T03:55:08.403Z,5.40
2023-12-09T03:57:37.741Z,5.33
2023-12-09T04:00:09.405Z,5.10
2023-12-09T04:02:38.444Z,4.23
2023-12-09T04:05:08.557Z,5.03
2023-12-09T04:07:38.583Z,4.93
2023-12-09T04:10:08.233Z,5.10
2023-12-09T04:12:38.202Z,4.93
2023-12-09T04:15:08.682Z,5.33
2023-12-09T04:17:40.780Z,5.90
2023-12-09T04:20:11.892Z,5.23
2023-12-09T04:22:44.262Z,5.93
2023-12-09T04:25:12.854Z,4.53
2023-12-09T04:27:41.889Z,5.47
2023-12-09T04:30:11.229Z,4.63
2023-12-09T04:32:40.199Z,5.53
2023-12-09T04:35:11.027Z,5.47
2023-12-09T04:37:40.306Z,5.10
2023-12-09T04:40:15.089Z,5.50
2023-12-09T04:42:45.412Z,4.67
2023-12-09T04:45:14.398Z,6.57
2023-12-09T04:47:43.490Z,4.90
2023-12-09T04:50:13.163Z,5.57
2023-12-09T04:52:42.170Z,4.63
2023-12-09T04:55:11.244Z,4.97
2023-12-09T04:57:41.177Z,4.30
2023-12-09T05:00:12.581Z,4.00
2023-12-09T05:02:42.262Z,3.43
2023-12-09T05:05:12.347Z,4.77
2023-12-09T05:07:44.579Z,4.13
2023-12-09T05:10:14.396Z,3.70
2023-12-09T05:12:43.448Z,3.63
2023-12-09T05:15:12.748Z,3.83
2023-12-09T05:17:41.815Z,3.90
2023-12-09T05:20:12.441Z,3.50
2023-12-09T05:22:40.709Z,3.93
2023-12-09T05:25:10.836Z,3.97
2023-12-09T05:27:40.669Z,5.07
2023-12-09T05:30:12.029Z,3.77
2023-12-09T05:32:42.780Z,4.10
2023-12-09T05:35:12.060Z,3.27
2023-12-09T05:37:41.156Z,3.10
2023-12-09T05:40:11.900Z,3.33
2023-12-09T05:42:42.532Z,3.47
2023-12-09T05:45:12.023Z,3.63
2023-12-09T05:47:41.083Z,2.77
2023-12-09T05:50:12.528Z,3.43
2023-12-09T05:52:42.427Z,2.97
2023-12-09T05:55:11.402Z,3.03
2023-12-09T05:57:40.424Z,3.60
2023-12-09T06:00:14.220Z,3.40
2023-12-09T06:02:45.442Z,3.20
2023-12-09T06:05:15.184Z,4.27
2023-12-09T06:07:43.271Z,3.53
2023-12-09T06:10:14.606Z,3.40
2023-12-09T06:12:44.376Z,2.90
2023-12-09T06:15:13.840Z,4.17
2023-12-09T06:17:44.986Z,2.80
2023-12-09T06:20:14.495Z,2.67
2023-12-09T06:22:43.502Z,2.17
2023-12-09T06:25:12.549Z,2.83
2023-12-09T06:27:41.577Z,2.57
2023-12-09T06:30:12.479Z,3.37
2023-12-09T06:32:42.713Z,2.53
2023-12-09T06:35:11.841Z,2.47
2023-12-09T06:37:40.875Z,3.00
2023-12-09T06:40:11.634Z,2.63
2023-12-09T06:42:41.679Z,2.80
2023-12-09T06:45:11.709Z,2.40
2023-12-09T06:47:40.884Z,2.63
2023-12-09T06:50:09.823Z,3.03
2023-12-09T06:52:38.870Z,2.67
2023-12-09T06:55:08.896Z,2.20
2023-12-09T06:57:38.022Z,2.80
2023-12-09T07:00:09.994Z,2.40
2023-12-09T07:02:56.553Z,2.53
2023-12-09T07:05:37.349Z,2.20
2023-12-09T07:08:16.033Z,2.83
2023-12-09T07:10:50.045Z,2.43
2023-12-09T07:13:24.158Z,2.40
2023-12-09T07:15:57.106Z,2.93
2023-12-09T07:18:32.487Z,2.53
2023-12-09T07:21:02.326Z,2.23
2023-12-09T07:23:31.311Z,2.40
2023-12-09T07:26:01.470Z,2.50
2023-12-09T07:28:32.350Z,2.20
2023-12-09T07:31:04.283Z,2.47
2023-12-09T07:33:34.568Z,2.00
2023-12-09T07:36:03.650Z,2.80
2023-12-09T07:38:34.395Z,2.83
2023-12-09T07:41:03.735Z,2.73
2023-12-09T07:43:40.354Z,2.40
2023-12-09T07:46:17.732Z,2.27
2023-12-09T07:48:51.759Z,2.40
2023-12-09T07:51:24.667Z,2.40
2023-12-09T07:53:56.615Z,2.17
2023-12-09T07:56:33.560Z,2.77
2023-12-09T07:59:07.868Z,2.33
2023-12-09T08:01:43.671Z,3.93
2023-12-09T08:04:18.823Z,2.40
2023-12-09T08:06:58.254Z,2.60
2023-12-09T08:09:32.764Z,2.30
2023-12-09T08:12:09.773Z,2.80
2023-12-09T08:14:44.797Z,2.83
2023-12-09T08:17:19.835Z,3.00
2023-12-09T08:19:51.952Z,3.23
2023-12-09T08:22:24.494Z,2.90
2023-12-09T08:25:00.528Z,2.60
2023-12-09T08:27:38.177Z,2.57
2023-12-09T08:30:14.973Z,2.30
2023-12-09T08:32:51.130Z,2.20
2023-12-09T08:35:27.143Z,2.77
2023-12-09T08:38:05.400Z,2.50
2023-12-09T08:40:40.213Z,3.17
2023-12-09T08:43:18.254Z,2.53
2023-12-09T08:45:56.342Z,2.73
2023-12-09T08:48:35.243Z,2.17
2023-12-09T08:51:12.457Z,2.87
2023-12-09T08:53:50.667Z,2.63
2023-12-09T08:56:32.008Z,3.17
2023-12-09T08:59:16.519Z,2.27
2023-12-09T09:01:56.087Z,2.97
2023-12-09T09:04:36.831Z,2.50
2023-12-09T09:07:16.165Z,2.03
2023-12-09T09:09:57.697Z,2.47
2023-12-09T09:12:37.837Z,2.27
2023-12-09T09:15:18.817Z,1.73
2023-12-09T09:17:58.899Z,1.97
2023-12-09T09:20:40.887Z,1.67
2023-12-09T09:23:19.862Z,2.00
2023-12-09T09:26:01.447Z,1.97
2023-12-09T09:28:41.242Z,1.90
2023-12-09T09:31:22.477Z,2.73
2023-12-09T09:34:04.139Z,1.90
2023-12-09T09:36:44.002Z,1.80
2023-12-09T09:39:24.019Z,1.77
2023-12-09T09:42:32.009Z,2.00
2023-12-09T09:45:31.616Z,1.90
2023-12-09T09:48:18.188Z,1.27
2023-12-09T09:51:01.142Z,1.70
2023-12-09T09:53:53.208Z,1.77
2023-12-09T09:56:30.473Z,1.50
2023-12-09T09:59:08.136Z,1.43
2023-12-09T10:01:42.310Z,1.50
2023-12-09T10:04:19.333Z,2.73
2023-12-09T10:06:52.375Z,1.50
2023-12-09T10:09:25.053Z,1.40
2023-12-09T10:11:58.638Z,1.20
2023-12-09T10:14:30.637Z,1.27
2023-12-09T10:17:02.721Z,1.37
2023-12-09T10:19:38.511Z,1.30
2023-12-09T10:22:13.060Z,0.90
2023-12-09T10:24:53.534Z,1.43
2023-12-09T10:27:27.697Z,1.30
2023-12-09T10:30:00.009Z,1.20
2023-12-09T10:32:39.164Z,1.20
2023-12-09T10:35:15.630Z,1.40
2023-12-09T10:37:57.628Z,0.90
2023-12-09T10:40:36.181Z,0.90
2023-12-09T10:43:14.932Z,0.90
2023-12-09T10:45:55.973Z,1.27
2023-12-09T10:48:36.099Z,0.97
2023-12-09T10:51:17.949Z,1.00
2023-12-09T10:53:57.071Z,0.80
2023-12-09T10:56:37.834Z,0.63
2023-12-09T10:59:15.854Z,0.90
2023-12-09T11:01:58.893Z,0.80
2023-12-09T11:04:38.830Z,0.87
2023-12-09T11:07:17.933Z,0.80
2023-12-09T11:09:56.847Z,0.80
2023-12-09T11:12:33.982Z,0.90
2023-12-09T11:15:22.173Z,0.90
2023-12-09T11:18:01.697Z,0.93
2023-12-09T11:20:35.203Z,0.70
2023-12-09T11:23:06.111Z,0.80
2023-12-09T11:25:38.147Z,0.70
2023-12-09T11:28:09.412Z,0.80
2023-12-09T11:30:44.324Z,0.63
2023-12-09T11:33:13.729Z,0.83
2023-12-09T11:35:45.213Z,0.60
2023-12-09T11:38:17.410Z,0.70
2023-12-09T11:40:51.166Z,0.60
2023-12-09T11:43:23.277Z,0.67
2023-12-09T11:45:56.381Z,0.63
2023-12-09T11:48:31.351Z,0.73
2023-12-09T11:51:10.715Z,1.13
2023-12-09T11:53:57.801Z,1.33
2023-12-09T11:56:36.401Z,0.97
2023-12-09T11:59:16.583Z,0.60
2023-12-09T12:01:53.637Z,0.87
2023-12-09T12:04:38.902Z,0.80
2023-12-09T12:07:18.606Z,0.27
2023-12-09T12:09:58.535Z,0.77
2023-12-09T12:12:37.720Z,0.50
2023-12-09T12:15:14.821Z,0.50
2023-12-09T12:17:54.777Z,0.40
2023-12-09T12:20:31.843Z,0.50
2023-12-09T12:23:14.128Z,0.70
2023-12-09T12:25:59.938Z,0.60
2023-12-09T12:28:35.837Z,0.50
2023-12-09T12:31:15.140Z,0.60
2023-12-09T12:33:50.184Z,0.50
2023-12-09T12:36:28.604Z,1.20
2023-12-09T12:39:04.324Z,0.60
2023-12-09T12:41:42.163Z,0.60
2023-12-09T12:44:21.600Z,0.50
2023-12-09T12:47:02.098Z,0.33
2023-12-09T12:49:41.460Z,0.63
2023-12-09T12:52:22.678Z,0.60
2023-12-09T12:55:01.150Z,0.50
2023-12-09T12:57:44.300Z,0.60
2023-12-09T13:00:24.406Z,0.53
2023-12-09T13:03:01.293Z,0.90
2023-12-09T13:05:38.685Z,0.43
2023-12-09T13:08:17.297Z,0.47
2023-12-09T13:10:54.368Z,0.50
2023-12-09T13:13:28.658Z,0.43
2023-12-09T13:16:06.565Z,0.67
2023-12-09T13:18:43.609Z,0.57
2023-12-09T13:21:21.452Z,0.63
2023-12-09T13:23:59.656Z,0.43
2023-12-09T13:26:36.637Z,1.07
2023-12-09T13:29:12.661Z,0.70
2023-12-09T13:31:51.602Z,1.20
2023-12-09T13:34:31.947Z,0.70
2023-12-09T13:37:12.760Z,0.97
2023-12-09T13:39:52.920Z,1.27
2023-12-09T13:42:33.367Z,0.60
2023-12-09T13:45:16.990Z,1.20
2023-12-09T13:47:56.817Z,0.70
2023-12-09T13:50:40.480Z,2.33
2023-12-09T13:53:20.936Z,2.00
2023-12-09T13:56:31.944Z,1.40
2023-12-09T14:02:16.151Z,1.63
2023-12-09T14:04:56.404Z,0.60
2023-12-09T14:07:38.236Z,0.70
2023-12-09T14:10:19.467Z,1.50
2023-12-09T14:12:57.319Z,0.67
2023-12-09T14:15:38.151Z,0.50
2023-12-09T14:18:15.455Z,0.60
2023-12-09T14:20:56.335Z,1.03
2023-12-09T14:23:35.333Z,0.73
2023-12-09T14:26:15.394Z,2.13
2023-12-09T14:28:52.270Z,1.10
2023-12-09T14:31:26.160Z,0.97
2023-12-09T14:33:59.900Z,0.83
2023-12-09T14:36:37.492Z,2.00
2023-12-09T14:39:15.878Z,0.70
2023-12-09T14:41:52.816Z,0.90
2023-12-09T14:44:31.600Z,0.73
2023-12-09T14:47:09.880Z,0.47
2023-12-09T14:49:47.696Z,0.70
2023-12-09T14:52:27.106Z,0.90
2023-12-09T14:55:05.031Z,0.90
2023-12-09T14:57:44.798Z,0.93
2023-12-09T15:00:22.134Z,1.10
2023-12-09T15:03:01.890Z,0.90
2023-12-09T15:05:42.916Z,1.60
2023-12-09T15:08:21.891Z,0.80
2023-12-09T15:11:02.922Z,0.30
2023-12-09T15:13:42.963Z,0.40
2023-12-09T15:16:24.289Z,0.60
2023-12-09T15:19:04.285Z,1.60
2023-12-09T15:21:43.360Z,1.00
2023-12-09T15:24:21.157Z,0.57
2023-12-09T15:26:59.118Z,1.40
2023-12-09T15:29:35.213Z,0.50
2023-12-09T15:32:13.170Z,0.50
2023-12-09T15:34:51.850Z,0.60
2023-12-09T15:37:30.570Z,1.00
2023-12-09T15:40:13.208Z,0.73
2023-12-09T15:42:50.407Z,0.83
2023-12-09T15:45:26.487Z,0.57
2023-12-09T15:48:06.625Z,0.60
2023-12-09T15:50:42.508Z,0.50
2023-12-09T15:53:20.492Z,0.53
2023-12-09T15:55:57.570Z,0.80
2023-12-09T15:58:32.282Z,1.00
2023-12-09T16:01:08.105Z,0.83
2023-12-09T16:03:42.782Z,0.53
2023-12-09T16:06:15.808Z,3.23
2023-12-09T16:08:48.808Z,3.10
2023-12-09T16:11:21.793Z,2.93
2023-12-09T16:13:57.830Z,2.77
2023-12-09T16:16:33.849Z,2.07
2023-12-09T16:19:12.236Z,5.50
2023-12-09T16:21:47.861Z,5.03
2023-12-09T16:24:23.968Z,5.27
2023-12-09T16:26:59.097Z,5.33
2023-12-09T16:29:35.480Z,7.43
2023-12-09T16:32:11.924Z,1.93
2023-12-09T16:34:51.303Z,1.20
2023-12-09T16:37:36.984Z,1.13
2023-12-09T16:40:16.284Z,2.53
2023-12-09T16:42:58.145Z,1.50
2023-12-09T16:45:40.415Z,1.00
2023-12-09T16:48:20.509Z,1.20
2023-12-09T16:51:01.738Z,1.87
2023-12-09T16:53:40.258Z,1.47
2023-12-09T16:56:20.309Z,1.67
2023-12-09T16:58:59.733Z,1.30
2023-12-09T17:01:40.719Z,1.67
2023-12-09T17:04:17.730Z,1.30
2023-12-09T17:06:57.662Z,1.20
2023-12-09T17:09:33.793Z,1.80
2023-12-09T17:12:09.842Z,1.77
2023-12-09T17:14:45.806Z,1.70
2023-12-09T17:17:18.888Z,1.90
2023-12-09T17:19:53.954Z,1.60
2023-12-09T17:22:28.247Z,1.40
2023-12-09T17:25:03.005Z,1.30
2023-12-09T17:27:39.015Z,1.43
2023-12-09T17:30:16.286Z,1.23
2023-12-09T17:32:50.390Z,1.63
2023-12-09T17:35:21.069Z,1.63
2023-12-09T17:37:53.079Z,1.40
2023-12-09T17:40:22.202Z,1.80
2023-12-09T17:42:56.493Z,1.87
2023-12-09T17:45:29.774Z,2.00
2023-12-09T17:48:03.317Z,1.80
2023-12-09T17:50:38.578Z,1.70
2023-12-09T17:53:12.275Z,2.33
2023-12-09T17:55:48.253Z,2.30
2023-12-09T17:58:23.571Z,2.40
2023-12-09T18:00:57.579Z,2.30
2023-12-09T18:03:34.495Z,2.40
2023-12-09T18:06:14.471Z,2.20
2023-12-09T18:08:55.475Z,2.13
2023-12-09T18:11:31.541Z,2.10
2023-12-09T18:14:09.795Z,2.30
2023-12-09T18:16:44.620Z,2.40
2023-12-09T18:19:24.740Z,2.27
2023-12-09T18:22:00.643Z,2.00
2023-12-09T18:24:33.069Z,2.40
2023-12-09T18:27:08.248Z,2.60
2023-12-09T18:29:38.518Z,2.50
2023-12-09T18:32:19.037Z,2.40
2023-12-09T18:34:52.055Z,2.63
2023-12-09T18:37:25.266Z,2.50
2023-12-09T18:39:58.336Z,2.63
2023-12-09T18:42:32.313Z,3.13
2023-12-09T18:49:28.401Z,2.43
2023-12-09T18:52:02.456Z,2.50
2023-12-09T18:54:41.266Z,3.07
2023-12-09T18:57:18.662Z,2.67
2023-12-09T18:59:57.383Z,3.63
2023-12-09T19:02:37.203Z,3.70
2023-12-09T19:05:17.469Z,2.63
2023-12-09T19:07:58.446Z,3.73
2023-12-09T19:10:38.554Z,3.70
2023-12-09T19:13:18.511Z,2.87
2023-12-09T19:15:59.463Z,4.10
2023-12-09T19:18:39.698Z,3.87
2023-12-09T19:21:19.639Z,5.33
2023-12-09T19:24:00.638Z,3.47
2023-12-09T19:26:44.673Z,3.50
2023-12-09T19:29:24.670Z,3.23
2023-12-09T19:32:09.452Z,4.13
2023-12-09T19:34:48.361Z,3.93
2023-12-09T19:37:24.852Z,3.77
2023-12-09T19:40:01.630Z,4.47
2023-12-09T19:42:37.074Z,4.23
2023-12-09T19:45:17.733Z,4.83
2023-12-09T19:47:49.192Z,3.97
2023-12-09T19:50:27.920Z,4.83
2023-12-09T19:53:19.456Z,3.80
2023-12-09T19:56:25.268Z,3.90
2023-12-09T19:59:36.580Z,3.80
2023-12-09T20:06:12.422Z,4.47
2023-12-09T20:08:58.359Z,4.60
2023-12-09T20:11:28.412Z,4.70
2023-12-09T20:13:59.617Z,4.13
2023-12-09T20:16:30.452Z,4.73
2023-12-09T20:19:06.564Z,4.20
2023-12-09T20:21:40.710Z,5.00
2023-12-09T20:24:12.406Z,4.40
2023-12-09T20:26:52.376Z,4.93
2023-12-09T20:29:24.499Z,7.30
2023-12-09T20:31:57.497Z,4.27
2023-12-09T20:34:27.682Z,4.10
2023-12-09T20:37:01.617Z,4.43
2023-12-09T20:39:30.021Z,3.43
2023-12-09T20:41:56.985Z,4.70
2023-12-09T20:44:26.964Z,5.03
2023-12-09T20:46:57.099Z,3.83
2023-12-09T20:49:27.759Z,4.40
2023-12-09T20:51:57.826Z,4.63
2023-12-09T20:54:29.247Z,5.20
2023-12-09T20:57:00.943Z,4.47
2023-12-09T20:59:32.466Z,4.57
2023-12-09T21:02:04.695Z,6.00
2023-12-09T21:04:37.700Z,5.23
2023-12-09T21:07:15.635Z,4.30
2023-12-09T21:09:53.291Z,5.73
2023-12-09T21:12:26.422Z,4.07
2023-12-09T21:15:00.994Z,6.03
2023-12-09T21:17:34.530Z,3.83
2023-12-09T21:20:09.509Z,6.80
2023-12-09T21:22:42.463Z,4.57
2023-12-09T21:25:18.431Z,4.77
2023-12-09T21:27:51.413Z,6.13
2023-12-09T21:30:26.181Z,4.93
2023-12-09T21:32:59.447Z,5.33
2023-12-09T21:35:34.125Z,6.17
2023-12-09T21:38:06.996Z,4.53
2023-12-09T21:40:41.369Z,5.33
2023-12-09T21:43:14.638Z,4.17
2023-12-09T21:45:49.183Z,4.97
2023-12-09T21:48:25.580Z,5.20
2023-12-09T21:51:06.342Z,4.57
2023-12-09T21:53:42.891Z,4.73
2023-12-09T21:56:39.052Z,4.27
2023-12-09T21:59:16.402Z,4.53
2023-12-09T22:01:55.235Z,4.27
2023-12-09T22:04:34.255Z,5.17
2023-12-09T22:07:11.971Z,6.57
2023-12-09T22:09:48.259Z,6.17
2023-12-09T22:12:22.085Z,4.77
2023-12-09T22:14:53.445Z,4.83
2023-12-09T22:17:26.404Z,6.10
2023-12-09T22:19:56.539Z,5.63
2023-12-09T22:22:23.370Z,5.23
2023-12-09T22:24:50.213Z,4.10
2023-12-09T22:27:17.728Z,4.50
2023-12-09T22:29:44.618Z,5.53
2023-12-09T22:32:11.507Z,4.90
2023-12-09T22:34:38.521Z,5.37
2023-12-09T22:37:05.450Z,6.30
2023-12-09T22:39:32.806Z,4.60
2023-12-09T22:42:00.033Z,5.80
2023-12-09T22:44:30.180Z,5.17
2023-12-09T22:47:01.567Z,5.30
2023-12-09T22:49:33.622Z,5.93
2023-12-09T22:52:05.263Z,5.17
2023-12-09T22:54:38.298Z,5.20
2023-12-09T22:57:17.756Z,4.87
2023-12-09T22:59:54.069Z,5.03
2023-12-09T23:02:31.696Z,4.97
2023-12-09T23:05:07.817Z,5.27
2023-12-09T23:07:45.205Z,5.57
2023-12-09T23:10:21.533Z,4.87
2023-12-09T23:12:59.145Z,4.90
2023-12-09T23:15:37.190Z,5.20
2023-12-09T23:18:22.843Z,5.97
2023-12-09T23:20:53.816Z,5.20
2023-12-09T23:23:29.149Z,4.73
2023-12-09T23:25:59.078Z,5.67
2023-12-09T23:28:34.837Z,4.43
2023-12-09T23:31:03.814Z,4.77
2023-12-09T23:33:32.849Z,5.47
2023-12-09T23:36:00.023Z,5.10
2023-12-09T23:38:26.918Z,4.47
2023-12-09T23:40:53.921Z,4.60
2023-12-09T23:43:20.652Z,5.17
2023-12-09T23:45:47.700Z,5.57
2023-12-09T23:48:18.631Z,4.90
2023-12-09T23:50:46.038Z,4.03
2023-12-09T23:53:13.745Z,4.80
2023-12-09T23:55:41.233Z,5.20
2023-12-09T23:58:09.430Z,3.20
